OROVILLE DAM (ORO)

Elevation: 900' · FEATHER R basin · Operator: CA Dept of Water Resources/O & M

Provisional data, subject to change.
Query executed Monday at 0:26:23   clock

Select a sensor type for a plot of data.
Note: Reservoir Flows are daily averages.

Earlier

Date RES ELE    STORAGE    RES CHG    TOC STO    ABV TOC    OUTFLOW    INFLOW    EVAP    FNF    PPT INC    RAIN    PPTINC4   
 FEET   AF   AF   AF   AF   CFS   CFS   CFS   CFS   INCHES   INCHES   INCHES  
08/02/2014 698.25 1241331 -6151 3538000 -2296669 3939 963 125 992 e 0.00 18.84 0.00
08/03/2014 697.52 1235807 -5524 3538000 -2302193 4185 1517 116 927 e 0.00 18.84 0.00
08/04/2014 696.74 1229923 -5884 3538000 -2308077 4234 1357 88 727 0.00 18.84 0.00
08/05/2014 695.60 1221360 -8562 3538000 -2316640 4324 49 41 993 e 0.20 19.04 0.16
08/06/2014 694.80 1215377 -5984 3538000 -2322623 4327 1333 22 1020 e 0.00 19.04 0.04
08/07/2014 694.08 1210010 -5367 3538000 -2327990 4251 1553 45 1116 0.00 19.04 0.00
08/08/2014 693.53 1205922 -4088 3538000 -2332078 4156 2245 75 1020 e 0.00 19.04 0.00
08/09/2014 692.62 1199179 -6743 3538000 -2338821 4174 777 77 1020 e 0.00 19.04 0.00
08/10/2014 691.85 1193494 -5684 3538000 -2344506 3823 1061 67 1020 e 0.00 19.04 0.00
08/11/2014 691.20 1188711 -4784 3538000 -2349289 3665 1365 112 1026 0.24 19.28 0.00
08/12/2014 690.62 1184454 -4257 3538000 -2353546 3488 1358 52 629 0.00 19.28 0.24
08/13/2014 689.92 1179331 -5123 3538000 -2358669 3460 926 85 956 0.00 19.28 0.00
08/14/2014 689.18 1173933 -5398 3538000 -2364067 3464 813 71 985 0.00 19.28 0.00
08/15/2014 688.32 1167681 -6252 3538000 -2370319 3251 157 94 701 0.00 19.28 0.00
08/16/2014 687.51 1161814 -5867 3538000 -2376186 3216 389 94 767 0.00 19.28 0.00
08/17/2014 686.66 1155680 -6134 3538000 -2382320 3174 140 94 543 0.00 19.28 0.00
08/18/2014 685.82 1149641 -6039 3538000 -2388359 3154 287 104 798 0.00 19.28 0.00
08/19/2014 685.02 1143910 -5731 3538000 -2394090 3061 224 88 724 e 0.00 19.28 0.00
08/20/2014 684.36 1139197 -4713 3538000 -2398803 2990 862 67 724 e 0.00 19.28 0.00
08/21/2014 683.60 1133787 -5410 3538000 -2404213 2892 194 65 724 e 0.00 19.28 0.00
08/22/2014 682.88 1128679 -5108 3538000 -2409321 2910 412 78 596 0.00 19.28 0.00
08/23/2014 682.09 1123093 -5586 3538000 -2414907 2808 56 64 715 0.00 19.28 0.00
08/24/2014 681.40 1118230 -4863 3538000 -2419770 2808 420 64 783 0.00 19.28 0.00
08/25/2014 680.89 1114645 -3585 3538000 -2423355 2787 1113 98 -- 0.00 19.28 0.00
08/26/2014 680.53 1112120 -2525 3538000 -2425880 2723 1513 64 -- 0.00 19.28 0.00
08/27/2014 680.19 1109738 -2382 3538000 -2428262 2821 1650 66 -- 0.00 19.28 0.00
08/28/2014 679.84 1107290 -2448 3538000 -2430710 2822 1670 81 -- 0.00 19.28 0.00
08/29/2014 679.44 1104497 -2793 3538000 -2433503 2673 1351 86 -- 0.00 19.28 0.00
08/30/2014 679.04 1101709 -2788 3538000 -2436291 2616 1296 86 -- 0.00 19.28 0.00
08/31/2014 -- -- -- -- -- 0 -581 86 -- -- -- 0.00
09/01/2014 -- -- -- -- -- -- -- -- -- -- -- --

Later | Latest

Warning! This data is preliminary and subject to revision.

Download Data Now Download Data Now | Show ORO Map | Plot ORO Data | 1 Month ORO Data | Real-Time ORO Data | ORO Info